Beacon Hill, Washington
Current Conditions -  °F | °C
As of 9:53 AM on Friday 21 Nov 2014 (Local Time) from KBFI Reporting Station
Overcast Overcast  
Wind Chill: 52°   Ceiling: 4000
Heat Index: 52°   Visibility: 10mi
Dew Point: 45°   Wind: 8mph
Humidity: 77%   Direction: 140°SE
Pressure: 29.69"   Gusts: NA
Location:  47.5852°N, 122.3°W
Report Text: KBFI 211753Z 14007KT 10SM BKN040 OVC090 11/07 A2969 RMK AO2 RAB11E20 SLP053 P0000 60005 T01110072 10111 20094 56029
Loading
Personal Weather Stations






























Interactive Weather Map New forecast layout! Learn more

10-Day Weather Forecast

Advertisements
Track Severe Weather on mobile